Columbia/Owens Field, South Carolina
Current Conditions -  °F | °C
As of 3:53 PM on Friday 19 Dec 2014 (Local Time) from KCUB Reporting Station
Clear Clear  
Wind Chill: 61°   Ceiling: Unl
Heat Index: 61°   Visibility: 10mi
Dew Point: 35°   Wind: 0mph
Humidity: 38%   Direction: NA
Pressure: 30.11"   Gusts: NA
Location:  33.97°N, 81°W
Report Text: KCUB 192053Z AUTO 00000KT 10SM CLR 16/02 A3011 RMK AO2 SLP194 T01610017 55009
Loading
Personal Weather Stations






























Interactive Weather Map New forecast layout! Learn more

10-Day Weather Forecast

Advertisements
Track Severe Weather on mobile